Time;durP1;ratioP1;P1;durP2;ratioP2;P2;SDS_P1;SDS_P2;PMS_P1;PMS_P2;Temp;Humidity;BMP_temperature;BMP_pressure;BME280_temperature;BME280_humidity;BME280_pressure;Samples;Min_cycle;Max_cycle;Signal;HPM_P1;HPM_P2
2021/03/24 00:00:44;;;;;;;13.73;9.60;;;179.70;1792.00;;;;;;4823134;29;20433;-76
2021/03/24 00:03:10;;;;;;;18.40;11.85;;;179.70;1792.00;;;;;;4830979;29;20032;-76
2021/03/24 00:05:38;;;;;;;17.00;11.63;;;179.60;1792.00;;;;;;4840443;29;20029;-76
2021/03/24 00:08:05;;;;;;;19.02;11.32;;;179.60;1817.60;;;;;;4845904;29;20029;-76
2021/03/24 00:10:31;;;;;;;18.95;12.07;;;179.60;1817.60;;;;;;4832102;29;20026;-76
2021/03/24 00:12:58;;;;;;;18.25;10.90;;;179.60;1843.20;;;;;;4838773;29;20050;-76
2021/03/24 00:15:26;;;;;;;24.85;11.85;;;179.50;1843.20;;;;;;4828650;29;20045;-76
2021/03/24 00:17:53;;;;;;;18.95;11.35;;;179.50;1843.20;;;;;;4838075;29;20113;-76
2021/03/24 00:20:23;;;;;;;15.95;10.80;;;179.60;1843.20;;;;;;4846306;29;20030;-77
2021/03/24 00:22:48;;;;;;;14.35;10.18;;;179.50;1843.20;;;;;;4837158;29;20079;-77
2021/03/24 00:25:16;;;;;;;16.77;11.32;;;179.50;1843.20;;;;;;4833068;29;20025;-76
2021/03/24 00:27:46;;;;;;;20.70;11.65;;;179.50;1843.20;;;;;;4847857;29;20029;-77
2021/03/24 00:30:15;;;;;;;16.98;11.35;;;179.50;1843.20;;;;;;4836332;29;20021;-76
2021/03/24 00:32:41;;;;;;;18.00;11.05;;;179.50;1843.20;;;;;;4832088;29;20620;-76
2021/03/24 00:35:08;;;;;;;17.27;11.27;;;179.50;1843.20;;;;;;4845024;29;20443;-75
2021/03/24 00:37:34;;;;;;;15.88;10.82;;;179.50;1868.80;;;;;;4840938;29;20032;-76
2021/03/24 00:40:00;;;;;;;17.52;10.95;;;179.50;1868.80;;;;;;4842159;29;20121;-76
2021/03/24 00:42:26;;;;;;;16.60;10.95;;;179.50;1843.20;;;;;;4853042;29;20049;-76
2021/03/24 00:44:52;;;;;;;17.63;11.07;;;179.50;1894.40;;;;;;4831658;29;20480;-76
2021/03/24 00:47:18;;;;;;;17.10;11.52;;;179.50;1920.00;;;;;;4846020;29;20040;-76
2021/03/24 00:49:44;;;;;;;14.43;10.55;;;179.50;1945.60;;;;;;4848730;29;20033;-76
2021/03/24 00:52:10;;;;;;;17.55;9.93;;;179.50;1920.00;;;;;;4844464;29;20022;-75
2021/03/24 00:54:36;;;;;;;21.17;10.88;;;179.40;1945.60;;;;;;4827058;29;20034;-76
2021/03/24 00:57:02;;;;;;;18.00;11.68;;;179.30;1971.20;;;;;;4848827;29;20037;-76
2021/03/24 00:59:28;;;;;;;22.85;11.70;;;179.30;2022.40;;;;;;4827489;29;20037;-77
2021/03/24 01:01:54;;;;;;;16.77;11.68;;;179.30;2048.00;;;;;;4846382;29;20021;-75
2021/03/24 01:04:19;;;;;;;17.65;13.07;;;179.20;2073.60;;;;;;4856387;29;20061;-76
2021/03/24 01:06:45;;;;;;;16.55;11.70;;;179.20;2099.20;;;;;;4832117;29;20074;-76
2021/03/24 01:09:11;;;;;;;16.15;12.63;;;154.50;2124.80;;;;;;4850888;29;20053;-76
2021/03/24 01:11:39;;;;;;;21.65;13.82;;;154.50;2150.40;;;;;;4843016;29;20112;-77
2021/03/24 01:14:07;;;;;;;20.10;14.40;;;154.40;2150.40;;;;;;4842905;29;20045;-77
2021/03/24 01:16:33;;;;;;;17.10;13.48;;;154.20;2227.20;;;;;;4851185;29;20029;-75
2021/03/24 01:18:59;;;;;;;18.17;13.35;;;154.10;2227.20;;;;;;4851431;29;20077;-76
2021/03/24 01:21:25;;;;;;;21.58;13.13;;;154.10;2201.60;;;;;;4827852;29;20127;-76
2021/03/24 01:23:51;;;;;;;19.23;13.10;;;154.00;2227.20;;;;;;4826148;29;20097;-76
2021/03/24 01:26:18;;;;;;;18.00;13.70;;;154.00;2252.80;;;;;;4829829;29;20139;-76
2021/03/24 01:28:44;;;;;;;17.08;13.10;;;154.00;2252.80;;;;;;4826534;29;20036;-75
2021/03/24 01:31:10;;;;;;;18.10;13.25;;;154.00;2252.80;;;;;;4843474;29;20032;-76
2021/03/24 01:33:35;;;;;;;17.63;12.57;;;154.00;2227.20;;;;;;4843747;29;20113;-75
2021/03/24 01:36:02;;;;;;;18.38;12.35;;;154.00;2227.20;;;;;;4827939;29;20025;-75
2021/03/24 01:38:28;;;;;;;16.77;12.05;;;154.00;2227.20;;;;;;4829225;29;20029;-75
2021/03/24 01:40:57;;;;;;;18.33;12.50;;;154.00;2227.20;;;;;;4825943;29;20038;-76
2021/03/24 01:43:26;;;;;;;19.05;13.57;;;154.00;2201.60;;;;;;4842424;29;20040;-76
2021/03/24 01:46:10;;;;;;;15.35;11.32;;;154.00;2227.20;;;;;;4842754;29;20022;-75
2021/03/24 01:48:37;;;;;;;21.65;12.65;;;154.00;2201.60;;;;;;4826823;29;20252;-75
2021/03/24 01:51:04;;;;;;;20.13;13.50;;;154.00;2227.20;;;;;;4842845;29;20033;-75
2021/03/24 01:53:33;;;;;;;24.88;13.57;;;154.00;2227.20;;;;;;4836886;29;20471;-75
2021/03/24 01:55:59;;;;;;;20.45;13.15;;;154.00;2201.60;;;;;;4823775;29;20117;-75
2021/03/24 01:58:24;;;;;;;18.63;14.23;;;154.00;2201.60;;;;;;4852417;29;20060;-75
2021/03/24 02:00:51;;;;;;;22.02;14.35;;;154.00;2201.60;;;;;;4853401;29;20033;-75
2021/03/24 02:03:26;;;;;;;20.40;13.02;;;154.00;2176.00;;;;;;4856329;29;20028;-76
2021/03/24 02:05:54;;;;;;;23.70;14.38;;;154.00;2176.00;;;;;;4843208;29;20026;-76
2021/03/24 02:08:28;;;;;;;20.38;12.45;;;154.00;2176.00;;;;;;4838778;29;20057;-76
2021/03/24 02:11:07;;;;;;;16.73;12.35;;;154.00;2176.00;;;;;;4834121;29;20056;-76
2021/03/24 02:13:38;;;;;;;17.88;13.02;;;154.00;2176.00;;;;;;4829567;29;20555;-75
2021/03/24 02:16:17;;;;;;;15.50;12.13;;;154.00;2176.00;;;;;;4819954;29;20026;-75
2021/03/24 02:18:44;;;;;;;24.80;15.73;;;153.90;2176.00;;;;;;4827894;29;20030;-75
2021/03/24 02:21:17;;;;;;;20.63;13.88;;;154.00;2176.00;;;;;;4852383;29;20503;-75
2021/03/24 02:24:02;;;;;;;21.90;13.02;;;154.00;2176.00;;;;;;4854707;29;20085;-75
2021/03/24 02:26:31;;;;;;;21.95;14.05;;;154.00;2150.40;;;;;;4841585;29;20134;-75
2021/03/24 02:28:59;;;;;;;20.73;13.68;;;154.00;2150.40;;;;;;4858967;29;20037;-75
2021/03/24 02:31:27;;;;;;;20.48;14.77;;;154.00;2150.40;;;;;;4828782;29;20528;-75
2021/03/24 02:33:55;;;;;;;24.75;15.75;;;154.00;2176.00;;;;;;4856086;29;20032;-75
2021/03/24 02:36:23;;;;;;;19.92;15.02;;;154.00;2150.40;;;;;;4836459;29;20033;-75
2021/03/24 02:38:53;;;;;;;22.75;14.32;;;154.00;2150.40;;;;;;4846767;29;20117;-76
2021/03/24 02:41:19;;;;;;;22.50;14.95;;;154.00;2150.40;;;;;;4829900;29;20049;-76
2021/03/24 02:43:45;;;;;;;20.08;14.02;;;154.00;2150.40;;;;;;4830268;29;20046;-76
2021/03/24 02:46:13;;;;;;;22.10;14.77;;;154.00;2150.40;;;;;;4847432;29;20101;-76
2021/03/24 02:48:41;;;;;;;22.88;14.38;;;154.00;2150.40;;;;;;4829655;29;20022;-76
2021/03/24 02:51:12;;;;;;;22.55;16.45;;;154.00;2150.40;;;;;;4845608;29;20064;-76
2021/03/24 02:53:39;;;;;;;23.30;15.38;;;154.00;2150.40;;;;;;4856799;29;20030;-76
2021/03/24 02:56:08;;;;;;;24.75;15.68;;;153.90;2150.40;;;;;;4849686;29;20021;-76
2021/03/24 02:58:35;;;;;;;26.42;16.48;;;153.90;2124.80;;;;;;4860318;29;20040;-76
2021/03/24 03:01:07;;;;;;;24.65;15.35;;;153.90;2150.40;;;;;;4830097;29;20534;-75
2021/03/24 03:03:42;;;;;;;21.63;15.98;;;153.90;2150.40;;;;;;4847531;29;20038;-75
2021/03/24 03:06:12;;;;;;;23.48;15.40;;;153.90;2150.40;;;;;;4831415;29;20074;-75
2021/03/24 03:08:46;;;;;;;20.17;13.65;;;153.90;2150.40;;;;;;4864350;29;20104;-76
2021/03/24 03:11:22;;;;;;;21.65;15.07;;;154.00;2150.40;;;;;;4861496;29;20033;-75
2021/03/24 03:14:03;;;;;;;21.55;14.43;;;154.00;2150.40;;;;;;4846657;29;20475;-75
2021/03/24 03:16:48;;;;;;;23.67;16.23;;;154.00;2150.40;;;;;;4863419;29;20030;-75
2021/03/24 03:19:26;;;;;;;23.70;15.13;;;153.90;2176.00;;;;;;4831480;29;20510;-75
2021/03/24 03:22:16;;;;;;;22.20;14.50;;;153.90;2150.40;;;;;;4847295;29;20094;-76
2021/03/24 03:24:50;;;;;;;20.08;14.95;;;153.90;2150.40;;;;;;4830005;29;20033;-75
2021/03/24 03:27:18;;;;;;;21.33;14.80;;;153.90;2150.40;;;;;;4856154;29;20029;-75
2021/03/24 03:29:45;;;;;;;21.08;14.52;;;154.00;2150.40;;;;;;4841737;29;20391;-76
2021/03/24 03:32:18;;;;;;;19.52;15.25;;;153.90;2176.00;;;;;;4832087;29;20054;-76
2021/03/24 03:34:49;;;;;;;23.67;16.23;;;153.90;2176.00;;;;;;4833690;29;20060;-76
2021/03/24 03:37:16;;;;;;;30.15;15.57;;;153.80;2176.00;;;;;;4833221;29;20022;-76
2021/03/24 03:39:46;;;;;;;24.40;15.50;;;153.80;2176.00;;;;;;4832335;29;20030;-76
2021/03/24 03:42:12;;;;;;;30.25;19.10;;;153.80;2201.60;;;;;;4857046;29;20087;-76
2021/03/24 03:44:38;;;;;;;29.38;18.90;;;153.80;2201.60;;;;;;4830212;29;20049;-76
2021/03/24 03:47:07;;;;;;;26.25;17.70;;;153.70;2201.60;;;;;;4861422;29;20026;-75
2021/03/24 03:49:35;;;;;;;26.00;17.77;;;153.80;2201.60;;;;;;4852416;29;20041;-76
2021/03/24 03:52:23;;;;;;;27.77;18.20;;;153.70;2201.60;;;;;;4846808;29;20105;-76
2021/03/24 03:55:08;;;;;;;28.05;17.15;;;153.70;2201.60;;;;;;4841869;29;20033;-76
2021/03/24 03:57:48;;;;;;;25.55;15.63;;;153.80;2201.60;;;;;;4827179;29;20764;-76
2021/03/24 04:00:38;;;;;;;21.83;15.38;;;153.70;2176.00;;;;;;4823059;29;20033;-76
2021/03/24 04:03:11;;;;;;;27.27;15.15;;;153.70;2201.60;;;;;;4828276;29;20026;-76
2021/03/24 04:05:55;;;;;;;23.63;16.35;;;153.70;2201.60;;;;;;4828167;29;20107;-76
2021/03/24 04:08:23;;;;;;;25.88;16.45;;;153.70;2201.60;;;;;;4829776;29;20029;-76
2021/03/24 04:10:56;;;;;;;26.55;16.25;;;153.70;2201.60;;;;;;4836394;29;21057;-76
2021/03/24 04:13:26;;;;;;;25.67;15.93;;;153.70;2227.20;;;;;;4831403;29;20068;-76
2021/03/24 04:15:58;;;;;;;25.85;16.55;;;153.60;2201.60;;;;;;4845335;29;20025;-75
2021/03/24 04:18:34;;;;;;;28.45;18.02;;;153.70;2201.60;;;;;;4844891;29;20033;-75
2021/03/24 04:21:02;;;;;;;28.70;18.17;;;153.70;2201.60;;;;;;4835720;29;20372;-76
2021/03/24 04:23:32;;;;;;;24.88;16.75;;;153.70;2201.60;;;;;;4834576;29;20194;-76
2021/03/24 04:26:05;;;;;;;24.58;15.38;;;153.70;2201.60;;;;;;4845347;29;20032;-77
2021/03/24 04:28:35;;;;;;;22.25;15.73;;;153.60;2201.60;;;;;;4850307;29;20029;-76
2021/03/24 04:31:05;;;;;;;23.23;15.07;;;153.70;2201.60;;;;;;4854256;29;20017;-77
2021/03/24 04:33:31;;;;;;;23.38;15.35;;;153.70;2201.60;;;;;;4855133;29;20104;-76
2021/03/24 04:36:01;;;;;;;21.73;14.85;;;153.70;2201.60;;;;;;4830217;29;20060;-76
2021/03/24 04:38:37;;;;;;;26.27;17.10;;;153.60;2201.60;;;;;;4829963;29;20038;-76
2021/03/24 04:41:08;;;;;;;25.75;16.55;;;153.70;2201.60;;;;;;4843739;29;20476;-76
2021/03/24 04:43:38;;;;;;;25.13;16.80;;;153.70;2201.60;;;;;;4853258;29;20033;-75
2021/03/24 04:46:10;;;;;;;26.65;17.90;;;153.70;2201.60;;;;;;4833374;29;20026;-75
2021/03/24 04:48:44;;;;;;;24.33;15.20;;;153.70;2227.20;;;;;;4828151;29;20467;-75
2021/03/24 04:51:13;;;;;;;23.70;14.48;;;153.70;2201.60;;;;;;4844482;29;20025;-75
2021/03/24 04:53:44;;;;;;;26.23;17.25;;;153.80;2201.60;;;;;;4827468;29;20034;-75
2021/03/24 04:56:12;;;;;;;22.13;15.45;;;153.80;2201.60;;;;;;4845696;29;20030;-76
2021/03/24 04:58:42;;;;;;;25.80;17.05;;;153.90;2201.60;;;;;;4830422;29;20033;-76
2021/03/24 05:01:30;;;;;;;22.92;16.67;;;153.90;2201.60;;;;;;4845687;29;20086;-76
2021/03/24 05:04:05;;;;;;;24.83;15.38;;;153.90;2201.60;;;;;;4845202;29;20037;-76
2021/03/24 05:06:43;;;;;;;24.80;16.70;;;153.90;2201.60;;;;;;4832907;29;20031;-76
2021/03/24 05:09:10;;;;;;;23.10;17.42;;;153.90;2227.20;;;;;;4834562;29;20027;-76
2021/03/24 05:11:44;;;;;;;29.90;16.33;;;154.00;2227.20;;;;;;4862630;29;20057;-77
2021/03/24 05:14:37;;;;;;;22.52;15.93;;;154.00;2227.20;;;;;;4847534;29;20045;-77
2021/03/24 05:17:14;;;;;;;24.08;14.90;;;154.00;2227.20;;;;;;4861431;29;20030;-76
2021/03/24 05:19:40;;;;;;;21.42;14.57;;;153.90;2227.20;;;;;;4852924;29;20030;-76
2021/03/24 05:22:19;;;;;;;21.48;14.90;;;153.90;2227.20;;;;;;4832855;29;20037;-76
2021/03/24 05:24:47;;;;;;;24.73;15.25;;;154.00;2227.20;;;;;;4828307;29;20022;-75
2021/03/24 05:27:24;;;;;;;21.02;14.07;;;153.90;2227.20;;;;;;4844274;29;20045;-78
2021/03/24 05:29:53;;;;;;;20.42;14.88;;;154.00;2227.20;;;;;;4848294;29;20026;-78
2021/03/24 05:32:26;;;;;;;24.77;14.50;;;154.00;2227.20;;;;;;4829108;29;20033;-78
2021/03/24 05:34:55;;;;;;;21.88;14.98;;;154.00;2227.20;;;;;;4857228;29;20494;-78
2021/03/24 05:37:27;;;;;;;21.83;15.30;;;154.00;2227.20;;;;;;4832698;29;20082;-77
2021/03/24 05:39:53;;;;;;;20.80;14.65;;;154.00;2252.80;;;;;;4826588;29;20109;-77
2021/03/24 05:42:36;;;;;;;20.58;14.65;;;154.00;2227.20;;;;;;4858576;29;20529;-77
2021/03/24 05:45:25;;;;;;;24.38;14.18;;;154.00;2227.20;;;;;;4825007;29;20038;-77
2021/03/24 05:48:22;;;;;;;23.33;15.30;;;154.00;2252.80;;;;;;4825555;29;20038;-77
2021/03/24 05:51:19;;;;;;;22.77;13.73;;;154.10;2227.20;;;;;;4842977;29;20065;-77
2021/03/24 05:53:45;;;;;;;22.27;16.20;;;154.10;2227.20;;;;;;4816789;29;20022;-76
2021/03/24 05:56:50;;;;;;;24.05;14.68;;;154.10;2227.20;;;;;;4817680;29;20117;-76
2021/03/24 05:59:23;;;;;;;24.80;15.55;;;154.10;2227.20;;;;;;4823330;29;20046;-76
2021/03/24 06:02:08;;;;;;;24.35;15.00;;;154.10;2227.20;;;;;;4828207;29;20384;-76
2021/03/24 06:04:36;;;;;;;21.13;14.98;;;154.10;2201.60;;;;;;4832247;29;20037;-76
2021/03/24 06:07:02;;;;;;;20.40;13.93;;;154.10;2201.60;;;;;;4842708;29;20484;-76
2021/03/24 06:09:45;;;;;;;23.25;15.73;;;154.20;2227.20;;;;;;4862580;29;20113;-76
2021/03/24 06:12:20;;;;;;;21.38;16.00;;;154.20;2227.20;;;;;;4854685;29;20046;-75
2021/03/24 06:15:16;;;;;;;24.77;16.52;;;154.20;2227.20;;;;;;4848272;29;20038;-76
2021/03/24 06:18:06;;;;;;;19.88;14.43;;;154.20;2227.20;;;;;;4787972;29;20477;-75
2021/03/24 06:20:49;;;;;;;24.40;16.83;;;154.20;2227.20;;;;;;4806166;29;20062;-76
2021/03/24 06:23:34;;;;;;;23.92;14.15;;;154.20;2227.20;;;;;;4800263;29;20081;-77
2021/03/24 06:26:18;;;;;;;26.13;14.90;;;154.20;2227.20;;;;;;4796986;29;20027;-77
2021/03/24 06:29:04;;;;;;;20.45;14.88;;;154.20;2201.60;;;;;;4784169;29;20524;-76
2021/03/24 06:31:51;;;;;;;21.73;14.63;;;154.20;2227.20;;;;;;4790659;29;20027;-77
2021/03/24 06:34:44;;;;;;;22.05;13.90;;;154.20;2227.20;;;;;;4799147;29;20043;-77
2021/03/24 06:37:46;;;;;;;18.40;13.98;;;154.20;2227.20;;;;;;4789657;29;20062;-77
2021/03/24 06:40:15;;;;;;;21.08;15.27;;;154.30;2227.20;;;;;;4789704;30;20114;-77
2021/03/24 06:42:46;;;;;;;24.23;15.10;;;154.30;2227.20;;;;;;4772245;30;20044;-76
2021/03/24 06:45:33;;;;;;;28.77;18.20;;;154.40;2227.20;;;;;;4796093;29;20027;-76
2021/03/24 06:48:35;;;;;;;29.70;19.58;;;154.30;2227.20;;;;;;4772254;30;20036;-77
2021/03/24 06:51:09;;;;;;;27.33;18.42;;;154.30;2227.20;;;;;;4782074;30;20035;-77
2021/03/24 06:53:47;;;;;;;24.95;16.00;;;154.40;2227.20;;;;;;4786754;29;20503;-77
2021/03/24 06:56:34;;;;;;;24.15;16.98;;;154.40;2227.20;;;;;;4835793;29;20112;-77
2021/03/24 06:59:18;;;;;;;20.33;14.32;;;154.40;2227.20;;;;;;4827837;29;20045;-76
2021/03/24 07:02:09;;;;;;;28.13;16.25;;;154.40;2252.80;;;;;;4827089;29;20030;-77
2021/03/24 07:04:56;;;;;;;29.10;18.23;;;154.40;2252.80;;;;;;4831629;29;20076;-76
2021/03/24 07:07:38;;;;;;;25.67;16.30;;;154.40;2252.80;;;;;;4829316;29;20037;-77
2021/03/24 07:10:29;;;;;;;22.88;15.10;;;154.40;2252.80;;;;;;4829405;29;20037;-76
2021/03/24 07:13:33;;;;;;;21.85;16.23;;;154.40;2252.80;;;;;;4829681;29;20419;-76
2021/03/24 07:16:07;;;;;;;25.95;14.93;;;154.40;2252.80;;;;;;4823658;29;20083;-76
2021/03/24 07:19:00;;;;;;;20.08;14.98;;;154.40;2252.80;;;;;;4828868;29;20819;-76
2021/03/24 07:21:48;;;;;;;20.13;13.40;;;154.40;2252.80;;;;;;4850090;29;20088;-77
2021/03/24 07:24:27;;;;;;;20.35;14.60;;;154.50;2227.20;;;;;;4744295;30;20040;-76
2021/03/24 07:27:14;;;;;;;21.27;14.55;;;179.20;2227.20;;;;;;4741744;30;20097;-77
2021/03/24 07:30:14;;;;;;;24.50;14.90;;;179.20;2227.20;;;;;;4754468;30;20041;-78
2021/03/24 07:32:43;;;;;;;19.75;13.02;;;179.30;2227.20;;;;;;4737648;30;20048;-78
2021/03/24 07:35:34;;;;;;;26.90;14.88;;;179.30;2227.20;;;;;;4739977;30;20127;-78
2021/03/24 07:38:30;;;;;;;21.80;13.98;;;179.40;2227.20;;;;;;4741190;30;20264;-78
2021/03/24 07:41:30;;;;;;;17.97;13.27;;;179.40;2227.20;;;;;;4740220;30;20554;-78
2021/03/24 07:44:11;;;;;;;21.52;13.55;;;179.30;2227.20;;;;;;4668803;30;20038;-79
2021/03/24 07:47:21;;;;;;;17.55;12.57;;;179.30;2227.20;;;;;;4696693;30;20128;-79
2021/03/24 07:50:20;;;;;;;29.10;15.98;;;179.30;2201.60;;;;;;4683287;30;20144;-79
2021/03/24 07:52:55;;;;;;;23.58;13.82;;;179.30;2201.60;;;;;;4638474;30;20105;-79
2021/03/24 07:56:23;;;;;;;19.65;13.07;;;179.30;2150.40;;;;;;4659825;30;20038;-79
2021/03/24 07:59:22;;;;;;;25.33;13.73;;;179.30;2150.40;;;;;;4655234;30;20955;-79
2021/03/24 08:01:58;;;;;;;19.67;11.25;;;179.20;2150.40;;;;;;4660517;30;20046;-79
2021/03/24 08:04:39;;;;;;;18.58;12.30;;;179.30;2150.40;;;;;;4683997;30;20053;-79
2021/03/24 08:07:23;;;;;;;18.33;12.40;;;179.60;2150.40;;;;;;4685264;30;20508;-78
2021/03/24 08:10:20;;;;;;;15.80;10.82;;;179.70;2099.20;;;;;;4685899;30;20038;-78
2021/03/24 08:13:15;;;;;;;16.63;11.17;;;179.60;2073.60;;;;;;4663846;30;20058;-78
2021/03/24 08:16:22;;;;;;;24.13;11.88;;;179.50;2073.60;;;;;;4648518;30;20806;-77
2021/03/24 08:19:06;;;;;;;19.17;11.85;;;179.60;2073.60;;;;;;4616091;30;20104;-78
2021/03/24 08:21:34;;;;;;;15.50;11.50;;;179.80;2073.60;;;;;;4640529;30;20046;-78
2021/03/24 08:24:23;;;;;;;16.13;11.20;;;180.00;2073.60;;;;;;4656022;30;20054;-79
2021/03/24 08:26:54;;;;;;;25.23;14.77;;;180.10;1996.80;;;;;;4655810;30;20038;-79
2021/03/24 08:29:46;;;;;;;16.95;11.43;;;204.90;1996.80;;;;;;4672755;30;20109;-79
2021/03/24 08:32:39;;;;;;;19.15;11.55;;;204.80;1971.20;;;;;;4691466;30;20099;-79
2021/03/24 08:35:29;;;;;;;19.23;11.48;;;205.00;1945.60;;;;;;4685123;30;20026;-78
2021/03/24 08:38:12;;;;;;;14.32;10.95;;;205.20;1894.40;;;;;;4681205;30;20486;-78
2021/03/24 08:41:27;;;;;;;28.35;12.90;;;205.50;1894.40;;;;;;4682539;30;20448;-78
2021/03/24 08:44:14;;;;;;;12.95;9.60;;;205.50;1894.40;;;;;;4642434;30;20059;-78
2021/03/24 08:46:45;;;;;;;14.65;9.38;;;230.50;1792.00;;;;;;4651761;30;20051;-79
2021/03/24 08:49:21;;;;;;;16.35;10.20;;;231.00;1715.20;;;;;;4666599;30;20053;-81
2021/03/24 08:52:13;;;;;;;13.05;8.32;;;230.90;1715.20;;;;;;4686036;30;20056;-78
2021/03/24 08:54:55;;;;;;;13.32;7.20;;;230.40;1689.60;;;;;;4690799;30;20081;-78
2021/03/24 08:57:26;;;;;;;12.38;8.23;;;205.70;1715.20;;;;;;4719271;30;20032;-77
2021/03/24 08:59:54;;;;;;;12.10;8.32;;;230.40;1689.60;;;;;;4717205;30;20380;-77
2021/03/24 09:02:49;;;;;;;13.65;8.55;;;230.60;1689.60;;;;;;4718543;30;20066;-78
2021/03/24 09:05:48;;;;;;;14.88;9.45;;;230.60;1689.60;;;;;;4716495;30;20041;-78
2021/03/24 09:08:50;;;;;;;11.40;8.00;;;256.30;1612.80;;;;;;4727823;30;20178;-78
2021/03/24 09:11:36;;;;;;;13.25;9.48;;;256.40;1561.60;;;;;;4730552;30;20677;-77
2021/03/24 09:14:02;;;;;;;;;;;256.40;1561.60;;;;;;4714897;30;20509;-81
2021/03/24 09:16:48;;;;;;;11.63;8.73;;;256.50;1536.00;;;;;;4715866;30;19910;-76
2021/03/24 09:19:44;;;;;;;16.13;10.30;;;256.40;1561.60;;;;;;4748211;29;20061;-78
2021/03/24 09:22:38;;;;;;;18.05;9.82;;;256.50;1561.60;;;;;;4818677;29;20094;-79
2021/03/24 09:25:26;;;;;;;14.25;9.80;;;256.20;1612.80;;;;;;4834137;29;20030;-77
2021/03/24 09:28:10;;;;;;;13.27;8.77;;;256.50;1587.20;;;;;;4834105;29;20022;-77
2021/03/24 09:30:39;;;;;;;13.48;8.70;;;256.30;1561.60;;;;;;4833237;29;20117;-78
2021/03/24 09:33:32;;;;;;;13.23;8.18;;;256.00;1536.00;;;;;;4814486;29;20034;-77
2021/03/24 09:36:30;;;;;;;16.38;8.98;;;231.10;1587.20;;;;;;4837115;29;20109;-77
2021/03/24 09:38:57;;;;;;;21.00;11.15;;;230.90;1612.80;;;;;;4835101;29;20038;-76
2021/03/24 09:41:42;;;;;;;11.95;7.65;;;256.30;1510.40;;;;;;4822335;29;20034;-76
2021/03/24 09:44:45;;;;;;;13.00;8.63;;;281.70;1459.20;;;;;;4835090;29;20880;-76
2021/03/24 09:47:33;;;;;;;13.15;7.90;;;307.40;1459.20;;;;;;4747491;30;20568;-77
2021/03/24 09:50:21;;;;;;;21.10;11.43;;;332.80;1331.20;;;;;;4748707;30;20105;-77
2021/03/24 09:53:02;;;;;;;16.42;8.50;;;307.70;1408.00;;;;;;4733961;30;20123;-84
2021/03/24 09:56:06;;;;;;;12.38;8.95;;;308.10;1356.80;;;;;;4727295;30;20502;-81
2021/03/24 09:59:02;;;;;;;14.73;9.65;;;307.50;1433.60;;;;;;4731277;30;20064;-77
2021/03/24 10:01:46;;;;;;;11.50;9.25;;;332.80;1408.00;;;;;;4746227;30;20526;-79
2021/03/24 10:04:24;;;;;;;13.00;9.43;;;332.90;1356.80;;;;;;4734543;30;20057;-77
2021/03/24 10:07:08;;;;;;;14.02;8.55;;;307.30;1408.00;;;;;;4747970;30;20020;-76
2021/03/24 10:09:52;;;;;;;11.30;8.93;;;307.50;1356.80;;;;;;4747507;30;20037;-79
2021/03/24 10:12:32;;;;;;;16.60;9.52;;;307.80;1382.40;;;;;;4742037;30;20040;-80
2021/03/24 10:15:12;;;;;;;15.90;11.10;;;333.30;1280.00;;;;;;4750229;30;20051;-80
2021/03/24 10:17:56;;;;;;;10.70;8.77;;;333.20;1305.60;;;;;;4745338;30;20063;-78
2021/03/24 10:20:32;;;;;;;19.50;8.40;;;333.40;1228.80;;;;;;4749052;29;20385;-78
2021/03/24 10:23:21;;;;;;;13.70;8.85;;;333.70;1177.60;;;;;;4816797;29;20767;-80
2021/03/24 10:25:53;;;;;;;13.93;9.20;;;358.90;1177.60;;;;;;4817649;29;20041;-79
2021/03/24 10:28:33;;;;;;;10.98;8.45;;;333.70;1228.80;;;;;;4814481;29;20030;-82
2021/03/24 10:31:04;;;;;;;15.43;9.68;;;333.20;1305.60;;;;;;4817766;29;20129;-77
2021/03/24 10:33:37;;;;;;;11.02;9.00;;;308.00;1331.20;;;;;;4814226;29;20031;-81
2021/03/24 10:36:23;;;;;;;11.48;7.88;;;333.00;1254.40;;;;;;4813930;29;20117;-76
2021/03/24 10:38:53;;;;;;;14.15;8.93;;;358.40;1203.20;;;;;;4817940;29;20038;-77
2021/03/24 10:41:40;;;;;;;10.57;8.63;;;358.40;1203.20;;;;;;4803907;29;20045;-76
2021/03/24 10:44:35;;;;;;;;;;;333.70;1203.20;;;;;;4814778;29;20042;-79
2021/03/24 10:47:15;;;;;;;11.65;8.82;;;333.20;1228.80;;;;;;4800979;29;19919;-78
2021/03/24 10:49:54;;;;;;;11.48;7.57;;;333.70;1203.20;;;;;;4816530;29;20027;-81
2021/03/24 10:52:24;;;;;;;11.00;8.35;;;307.90;1254.40;;;;;;4818662;29;20058;-80
2021/03/24 10:55:14;;;;;;;11.57;8.05;;;333.60;1177.60;;;;;;4818524;29;20034;-79
2021/03/24 10:58:08;;;;;;;9.38;7.78;;;358.40;1152.00;;;;;;4815476;29;20041;-81
2021/03/24 11:00:36;;;;;;;10.80;8.02;;;358.60;1152.00;;;;;;4821814;29;20510;-75
2021/03/24 11:03:02;;;;;;;14.18;7.35;;;333.40;1152.00;;;;;;4818334;29;20046;-76
2021/03/24 11:05:42;;;;;;;9.05;6.93;;;358.70;1100.80;;;;;;4819668;29;20079;-76
2021/03/24 11:08:40;;;;;;;10.73;7.18;;;359.10;1075.20;;;;;;4798952;29;20064;-77
2021/03/24 11:11:18;;;;;;;10.93;6.80;;;384.10;1049.60;;;;;;4820912;29;20026;-75
2021/03/24 11:13:55;;;;;;;11.70;7.05;;;384.80;1024.00;;;;;;4830507;29;20062;-75
2021/03/24 11:16:28;;;;;;;15.75;7.57;;;358.50;1100.80;;;;;;4818833;29;20033;-74
2021/03/24 11:19:09;;;;;;;11.63;7.43;;;358.90;1075.20;;;;;;4820453;29;20042;-72
2021/03/24 11:22:13;;;;;;;13.98;8.05;;;384.20;998.40;;;;;;4820683;29;20049;-73
2021/03/24 11:24:48;;;;;;;10.18;6.60;;;384.10;972.80;;;;;;4822428;29;20467;-76
2021/03/24 11:27:39;;;;;;;8.52;5.47;;;333.70;1100.80;;;;;;4817174;29;20192;-77
2021/03/24 11:30:08;;;;;;;14.80;8.15;;;358.90;998.40;;;;;;4815837;29;20041;-75
2021/03/24 11:32:37;;;;;;;10.65;6.57;;;384.90;947.20;;;;;;4838273;29;20026;-75
2021/03/24 11:35:21;;;;;;;9.90;6.35;;;435.30;896.00;;;;;;4834050;29;20060;-73
2021/03/24 11:37:59;;;;;;;9.30;6.50;;;384.20;1024.00;;;;;;4839078;29;20022;-74
2021/03/24 11:40:34;;;;;;;15.02;6.72;;;358.70;1024.00;;;;;;4823455;29;20022;-74
2021/03/24 11:43:05;;;;;;;9.77;5.78;;;333.20;1075.20;;;;;;4835314;29;20034;-75
2021/03/24 11:45:33;;;;;;;9.48;5.70;;;358.60;1024.00;;;;;;4821200;29;20045;-72
2021/03/24 11:48:01;;;;;;;13.73;6.78;;;358.60;998.40;;;;;;4822030;29;20033;-72
2021/03/24 11:51:04;;;;;;;8.98;6.22;;;333.50;1075.20;;;;;;4822412;29;20487;-75
2021/03/24 11:53:59;;;;;;;7.97;4.78;;;333.40;1024.00;;;;;;4818882;29;20400;-74
2021/03/24 11:56:49;;;;;;;6.68;4.20;;;384.00;921.60;;;;;;4837172;29;20036;-74
2021/03/24 11:59:26;;;;;;;5.32;3.40;;;384.90;793.60;;;;;;4829630;29;20035;-72
2021/03/24 12:02:06;;;;;;;7.53;4.65;;;384.50;768.00;;;;;;4833743;29;20034;-74
2021/03/24 12:05:06;;;;;;;8.05;4.75;;;410.10;742.40;;;;;;4824710;29;20038;-72
2021/03/24 12:08:08;;;;;;;12.23;7.03;;;410.20;870.40;;;;;;4831844;29;20034;-72
2021/03/24 12:10:37;;;;;;;9.60;7.75;;;359.30;1049.60;;;;;;4833165;29;20098;-72
2021/03/24 12:13:22;;;;;;;10.30;7.28;;;384.00;1075.20;;;;;;4818684;29;20050;-73
2021/03/24 12:16:02;;;;;;;11.48;7.82;;;409.70;1024.00;;;;;;4817692;29;20045;-72
2021/03/24 12:18:42;;;;;;;10.43;7.32;;;384.30;1075.20;;;;;;4820151;29;20038;-72
2021/03/24 12:21:30;;;;;;;8.07;6.15;;;358.80;1152.00;;;;;;4822837;29;20030;-72
2021/03/24 12:24:00;;;;;;;10.90;7.80;;;359.10;1126.40;;;;;;4817259;29;20046;-72
2021/03/24 12:26:33;;;;;;;9.20;6.43;;;358.60;1152.00;;;;;;4822421;29;20445;-72
2021/03/24 12:29:18;;;;;;;19.33;12.43;;;359.30;1075.20;;;;;;4820267;29;20030;-72
2021/03/24 12:31:54;;;;;;;13.27;9.07;;;384.30;1075.20;;;;;;4816628;29;20038;-72
2021/03/24 12:34:23;;;;;;;9.60;6.75;;;384.40;1075.20;;;;;;4822811;29;20042;-73
2021/03/24 12:37:03;;;;;;;13.52;8.10;;;384.90;998.40;;;;;;4813990;29;20046;-72
2021/03/24 12:39:39;;;;;;;9.95;6.82;;;410.10;972.80;;;;;;4833343;29;20113;-74
2021/03/24 12:42:20;;;;;;;8.27;5.78;;;410.40;998.40;;;;;;4835376;29;20038;-74
2021/03/24 12:44:47;;;;;;;6.25;4.88;;;384.90;921.60;;;;;;4820380;29;20530;-75
2021/03/24 12:47:25;;;;;;;16.00;8.68;;;358.80;1049.60;;;;;;4817405;29;20027;-74
2021/03/24 12:50:08;;;;;;;13.43;9.65;;;384.40;998.40;;;;;;4836053;29;20022;-75
2021/03/24 12:52:43;;;;;;;9.23;6.22;;;409.60;972.80;;;;;;4818272;29;20038;-74
2021/03/24 12:55:11;;;;;;;11.65;7.00;;;384.60;972.80;;;;;;4833697;29;20062;-74